Aérodrome :
LOGIN :

S'inscrire | Disclaimer

   EN    FR    IT 

 










Légende :    VFR   VFR Marginal   IFR   IFR Intensif   IFR Très Intensif
Visi : 
Plafond : 
>= 8 km
>= 3000ft
5 à 8 km
1000 à 3000 ft
1500m à 5 km
500 à 1000 ft
800 à 1500m
200 à 500 ft
< 800m
< 200 ft
Symboles :   Orages  Brouillard  Fortes neiges  Fortes précipitations  Vent > 20 kt
SIGMETs :   Divers  Orages  Givrage  Turbulence  Onde Orograph.  Cendres Volcan.







- Altitude de l'aérodrome : 935 ft


EBFS - Florennes

DERNIER METAR :
  • 190655Z 17005KT 9999 FEW030TCU SCT100 BKN250 21/15 Q1008 BLU BLU

METARs EXPIRÉS :
  • 190625Z VRB02KT 9999 FEW020CB SCT100 BKN250 21/14 Q1008 BLU BLU
  • 190555Z 21005KT 9999 FEW030TCU SCT100 BKN250 20/14 Q1008 BLU BLU
  • 190525Z 17004KT 9999 FEW100 SCT250 20/14 Q1008 BLU BLU
  • 190455Z 15007KT 9999 FEW100 SCT250 19/14 Q1008 BLU BLU
  • 190425Z AUTO 13008KT 9999 FEW110/// 18/14 Q1007 BLU

TAF TAF EBFS
Valide du 19 à 07h jusqu'au 19 à 16h UTC


190541Z 1907/1916 16010KT 9999 FEW120 SCT230
BECMG 1907/1909 22012KT FEW030 SCT120
TEMPO 1907/1916 22015G30KT 5000 SHRA SCT025 BKN120
PROB40
TEMPO 1907/1916 22020G35KT 4000 TSRA SCT023 BKN120
PROB30
TEMPO 1909/1916 VRB20G40KT 2000 TSRAGR BKN020
Pas de NOTAMs connus pour ce terrain.
1 SIGMET publié pour la FIR Brussels (EBBU) :
 
Orages fréquents
EBBU SIGMET 02 VALID 190630/190830 EBBR
EBBU BRUSSELS FIR FRQ TS OBS WI N5113 E004 - N5121 E00426 - N5034 E00436 - N5006 E00446 - N4956 E00422 - N5113 E004 TOP FL360 MOV NE20KT INTSF=



MET'MAP, la Météo Aéronautique d'un coup d'oeil ! - Copyright ORBIFLY Décembre 2007 - Disclaimer

ORBIFLY MET'MAP TEAM :

Programmation & Développement : Alexandra Zaïnal
Conception & Développement : Baudouin d'Aumeries
Co-Programmation & Développement : Marc-Olivier Méhu
Soutien technique & logistique : Manuel Goepfert

Contact : metmap@orbifly.com




SOURCES & CREDITS :

   NOAA